Time;durP1;ratioP1;P1;durP2;ratioP2;P2;SDS_P1;SDS_P2;PMS_P1;PMS_P2;Temp;Humidity;BMP_temperature;BMP_pressure;BME280_temperature;BME280_humidity;BME280_pressure;Samples;Min_cycle;Max_cycle;Signal;HPM_P1;HPM_P2
2022/02/13 00:00:26;;;;;;;12.25;4.43;;;;;;;5.87;53.46;98531.66;5043341;28;20057;-56
2022/02/13 00:02:52;;;;;;;8.52;2.95;;;;;;;5.79;53.84;98540.59;5043106;28;20045;-58
2022/02/13 00:05:19;;;;;;;9.27;3.38;;;;;;;5.77;54.35;98534.59;5043351;28;20544;-56
2022/02/13 00:07:46;;;;;;;11.80;3.72;;;;;;;5.43;53.57;98490.13;5041843;28;20130;-59
2022/02/13 00:10:13;;;;;;;11.88;4.53;;;;;;;5.62;53.94;98512.88;5043506;28;20049;-58
2022/02/13 00:12:40;;;;;;;16.98;5.32;;;;;;;5.78;54.38;98531.53;5043005;28;20139;-58
2022/02/13 00:15:07;;;;;;;18.73;5.20;;;;;;;5.77;53.50;98523.59;5043930;28;20057;-59
2022/02/13 00:17:34;;;;;;;4.57;1.90;;;;;;;5.20;52.91;98452.63;5043618;28;20056;-58
2022/02/13 00:20:19;;;;;;;5.88;2.65;;;;;;;5.71;53.52;98547.59;5043358;28;20060;-59
2022/02/13 00:22:46;;;;;;;3.67;1.80;;;;;;;5.27;53.02;98475.84;5041329;28;20530;-58
2022/02/13 00:25:13;;;;;;;8.48;4.03;;;;;;;5.60;53.57;98528.84;5043494;28;20093;-58
2022/02/13 00:27:40;;;;;;;6.95;2.83;;;;;;;5.22;53.24;98483.34;5043449;28;20057;-57
2022/02/13 00:30:07;;;;;;;9.38;3.05;;;;;;;5.13;53.41;98469.50;5043454;28;20559;-60
2022/02/13 00:32:35;;;;;;;7.85;2.55;;;;;;;5.68;53.14;98530.88;5043706;28;20414;-56
2022/02/13 00:35:01;;;;;;;9.52;3.65;;;;;;;5.71;53.32;98541.28;5043875;28;20049;-59
2022/02/13 00:37:28;;;;;;;6.97;2.78;;;;;;;5.72;53.83;98521.72;5044099;28;20071;-57
2022/02/13 00:39:55;;;;;;;11.15;3.67;;;;;;;5.64;53.46;98524.38;5043292;28;20535;-60
2022/02/13 00:42:22;;;;;;;8.25;2.05;;;;;;;5.55;52.98;98523.44;5041621;28;20056;-58
2022/02/13 00:44:48;;;;;;;8.20;3.40;;;;;;;5.66;52.91;98516.63;5043606;28;20083;-60
2022/02/13 00:47:15;;;;;;;6.82;2.38;;;;;;;5.62;53.55;98521.94;5041777;28;20064;-56
2022/02/13 00:49:42;;;;;;;5.95;2.30;;;;;;;5.54;53.01;98499.81;5042861;28;20049;-57
2022/02/13 00:52:08;;;;;;;8.00;2.25;;;;;;;5.62;53.74;98516.44;5043196;28;20067;-60
2022/02/13 00:54:35;;;;;;;7.07;1.92;;;;;;;5.71;52.87;98513.78;5043057;28;20575;-58
2022/02/13 00:57:02;;;;;;;11.20;2.35;;;;;;;5.50;53.94;98532.56;5041653;28;20055;-60
2022/02/13 00:59:29;;;;;;;6.45;2.58;;;;;;;5.63;53.25;98511.75;5043291;28;20055;-57
2022/02/13 01:01:57;;;;;;;3.05;1.75;;;;;;;5.70;53.27;98510.25;5044170;28;20053;-56
2022/02/13 01:04:23;;;;;;;9.73;3.22;;;;;;;5.46;53.46;98456.53;5046737;28;20155;-59
2022/02/13 01:06:50;;;;;;;17.40;4.65;;;;;;;5.68;52.91;98503.41;5046945;28;20426;-59
2022/02/13 01:09:17;;;;;;;18.30;4.97;;;;;;;5.77;52.76;98512.59;5045130;28;20048;-59
2022/02/13 01:11:43;;;;;;;5.90;2.38;;;;;;;5.37;53.06;98469.34;5044921;28;20079;-59
2022/02/13 01:14:10;;;;;;;6.53;1.90;;;;;;;5.56;52.54;98517.66;5045064;28;20058;-56
2022/02/13 01:16:37;;;;;;;6.35;2.15;;;;;;;5.65;52.79;98509.50;5046836;28;20049;-56
2022/02/13 01:19:04;;;;;;;8.70;2.75;;;;;;;5.04;53.62;98476.78;5046775;28;20408;-58
2022/02/13 01:21:31;;;;;;;7.85;2.40;;;;;;;5.25;53.81;98491.00;5046682;28;20063;-56
2022/02/13 01:23:58;;;;;;;12.38;2.70;;;;;;;5.53;54.36;98522.94;5046804;28;20049;-59
2022/02/13 01:26:25;;;;;;;7.38;2.72;;;;;;;5.62;52.74;98521.09;5044541;28;20055;-59
2022/02/13 01:28:51;;;;;;;7.18;2.42;;;;;;;5.80;53.22;98501.00;5046474;28;20052;-59
2022/02/13 01:31:18;;;;;;;11.93;2.70;;;;;;;5.65;53.38;98493.00;5044992;28;20048;-55
2022/02/13 01:33:45;;;;;;;4.28;1.95;;;;;;;4.91;53.84;98421.81;5046350;28;20053;-55
2022/02/13 01:36:13;;;;;;;9.18;1.98;;;;;;;5.55;53.36;98490.44;5046151;28;20063;-59
2022/02/13 01:38:39;;;;;;;9.48;2.55;;;;;;;5.71;53.85;98491.78;5046467;28;20053;-59
2022/02/13 01:41:06;;;;;;;10.93;3.22;;;;;;;5.66;53.56;98472.66;5044512;28;20059;-59
2022/02/13 01:43:33;;;;;;;9.13;3.17;;;;;;;5.87;53.35;98483.00;5045905;28;20048;-57
2022/02/13 01:46:00;;;;;;;7.22;2.63;;;;;;;5.14;53.97;98360.47;5044660;28;20056;-58
2022/02/13 01:48:29;;;;;;;15.73;5.25;;;;;;;5.96;53.77;98494.09;5045724;28;20057;-59
2022/02/13 01:50:56;;;;;;;9.07;3.17;;;;;;;5.81;53.29;98467.69;5045309;28;20067;-58
2022/02/13 01:53:43;;;;;;;5.28;2.50;;;;;;;5.97;52.78;98484.72;5045169;28;20580;-58
2022/02/13 01:56:09;;;;;;;9.77;2.83;;;;;;;5.11;53.62;98415.97;5045647;28;20045;-57
2022/02/13 01:58:37;;;;;;;20.45;3.67;;;;;;;5.58;53.55;98481.63;5045292;28;20048;-61
2022/02/13 02:01:04;;;;;;;6.75;3.42;;;;;;;5.67;53.39;98491.59;5044119;28;20060;-57
2022/02/13 02:03:30;;;;;;;7.78;2.80;;;;;;;5.15;53.24;98400.53;5046060;28;20078;-56
2022/02/13 02:05:57;;;;;;;13.02;3.15;;;;;;;5.49;54.15;98487.00;5045586;28;20056;-58
2022/02/13 02:08:24;;;;;;;14.70;5.03;;;;;;;5.54;53.61;98477.84;5045330;28;20056;-59
2022/02/13 02:10:52;;;;;;;12.20;4.63;;;;;;;5.55;53.73;98476.69;5043913;28;20057;-57
2022/02/13 02:13:18;;;;;;;8.23;3.33;;;;;;;5.75;53.69;98479.88;5044644;28;20053;-57
2022/02/13 02:15:45;;;;;;;5.60;2.45;;;;;;;5.68;54.32;98486.91;5045616;28;20052;-58
2022/02/13 02:18:12;;;;;;;10.43;3.22;;;;;;;5.47;53.89;98491.97;5045682;28;20048;-56
2022/02/13 02:20:40;;;;;;;5.95;2.20;;;;;;;5.49;53.69;98475.16;5045561;28;20053;-58
2022/02/13 02:23:06;;;;;;;7.03;2.38;;;;;;;4.91;53.62;98421.81;5045624;28;20045;-57
2022/02/13 02:25:33;;;;;;;5.50;2.42;;;;;;;5.45;53.26;98499.72;5044993;28;20060;-58
2022/02/13 02:28:00;;;;;;;8.00;2.67;;;;;;;5.31;53.72;98498.03;5045069;28;20127;-58
2022/02/13 02:30:27;;;;;;;4.60;2.42;;;;;;;5.32;53.01;98505.16;5044816;28;20060;-59
2022/02/13 02:32:54;;;;;;;7.35;2.28;;;;;;;4.99;54.06;98462.31;5045087;28;20750;-58
2022/02/13 02:35:21;;;;;;;23.20;6.18;;;;;;;4.82;55.26;98484.00;5043552;28;20053;-59
2022/02/13 02:37:47;;;;;;;8.18;2.67;;;;;;;5.09;55.02;98495.13;5043688;28;20431;-58
2022/02/13 02:40:15;;;;;;;6.53;2.67;;;;;;;5.20;54.69;98502.06;5045270;28;20049;-59
2022/02/13 02:42:42;;;;;;;8.73;2.90;;;;;;;5.31;54.45;98498.03;5045067;28;20470;-57
2022/02/13 02:45:13;;;;;;;9.30;3.60;;;;;;;5.05;54.33;98461.13;5045134;28;20044;-57
2022/02/13 02:47:42;;;;;;;8.50;2.42;;;;;;;5.09;54.56;98465.69;5043836;28;20463;-58
2022/02/13 02:50:10;;;;;;;7.65;2.78;;;;;;;5.19;54.10;98475.69;5044751;28;20064;-58
2022/02/13 02:52:37;;;;;;;7.97;4.57;;;;;;;5.32;54.30;98505.97;5043062;28;20052;-58
2022/02/13 02:55:05;;;;;;;12.52;3.08;;;;;;;5.37;54.49;98513.31;5044869;28;20048;-58
2022/02/13 02:57:32;;;;;;;9.35;2.58;;;;;;;5.10;54.41;98483.00;5044859;28;20049;-59
2022/02/13 02:59:59;;;;;;;8.13;2.97;;;;;;;5.35;54.10;98515.53;5044518;28;20053;-59
2022/02/13 03:02:26;;;;;;;8.70;2.83;;;;;;;5.24;54.43;98503.09;5044440;28;20491;-58
2022/02/13 03:04:55;;;;;;;8.43;3.58;;;;;;;5.41;54.36;98515.16;5043658;28;20246;-58
2022/02/13 03:07:22;;;;;;;7.07;2.67;;;;;;;5.46;54.10;98515.06;5044553;28;20048;-58
2022/02/13 03:09:48;;;;;;;11.35;3.15;;;;;;;4.73;54.59;98513.25;5044230;28;20136;-58
2022/02/13 03:12:15;;;;;;;14.70;4.93;;;;;;;4.95;55.69;98516.22;5044260;28;20060;-58
2022/02/13 03:14:42;;;;;;;22.35;8.18;;;;;;;4.55;55.78;98436.09;5044534;28;20107;-59
2022/02/13 03:17:09;;;;;;;5.95;3.60;;;;;;;4.71;55.07;98460.59;5044392;28;20490;-60
2022/02/13 03:19:36;;;;;;;15.95;5.85;;;;;;;5.18;55.43;98515.28;5044007;28;20625;-56
2022/02/13 03:22:04;;;;;;;4.70;3.28;;;;;;;5.01;55.02;98501.28;5044484;28;20100;-56
2022/02/13 03:24:32;;;;;;;6.72;2.70;;;;;;;5.20;54.86;98513.06;5044367;28;20052;-58
2022/02/13 03:26:58;;;;;;;9.93;2.80;;;;;;;4.61;55.33;98443.16;5042201;28;20049;-58
2022/02/13 03:29:25;;;;;;;9.45;3.20;;;;;;;4.97;55.33;98513.97;5043649;28;20053;-58
2022/02/13 03:31:53;;;;;;;6.43;2.72;;;;;;;4.86;55.79;98523.47;5044263;28;20083;-58
2022/02/13 03:34:19;;;;;;;6.68;2.97;;;;;;;4.39;55.81;98453.09;5043416;28;20063;-59
2022/02/13 03:36:47;;;;;;;11.23;2.78;;;;;;;4.85;56.78;98522.69;5043503;28;20056;-59
2022/02/13 03:39:14;;;;;;;5.47;2.92;;;;;;;4.95;56.11;98527.19;5043621;28;20079;-59
2022/02/13 03:41:41;;;;;;;8.38;3.00;;;;;;;4.79;56.33;98498.34;5043743;28;20063;-58
2022/02/13 03:44:09;;;;;;;6.22;2.40;;;;;;;4.96;56.02;98520.59;5043867;28;20056;-61
2022/02/13 03:46:36;;;;;;;9.57;3.75;;;;;;;5.01;56.48;98529.53;5044039;28;20061;-58
2022/02/13 03:49:03;;;;;;;8.60;3.45;;;;;;;4.93;55.85;98524.75;5043592;28;20068;-60
2022/02/13 03:51:30;;;;;;;6.10;2.83;;;;;;;4.95;56.36;98521.72;5041681;28;20049;-59
2022/02/13 03:53:57;;;;;;;7.22;3.55;;;;;;;4.47;55.73;98449.69;5043264;28;20045;-58
2022/02/13 03:56:23;;;;;;;9.07;3.60;;;;;;;5.00;56.29;98514.19;5041922;28;20103;-57
2022/02/13 03:58:50;;;;;;;7.47;3.35;;;;;;;4.98;56.11;98521.09;5042048;28;20045;-59
2022/02/13 04:01:17;;;;;;;7.40;3.67;;;;;;;3.21;56.00;98217.69;5043285;28;20049;-59
2022/02/13 04:03:43;;;;;;;13.60;4.80;;;;;;;5.17;55.58;98519.94;5043585;28;20053;-58
2022/02/13 04:06:12;;;;;;;9.30;3.60;;;;;;;5.06;56.63;98495.72;5042302;28;20130;-56
2022/02/13 04:08:39;;;;;;;10.10;4.28;;;;;;;4.69;55.79;98439.72;5042442;28;20063;-59
2022/02/13 04:11:06;;;;;;;5.82;2.72;;;;;;;4.23;56.09;98414.09;5043995;28;20049;-58
2022/02/13 04:13:32;;;;;;;7.03;2.60;;;;;;;5.26;55.43;98511.84;5043305;28;20049;-56
2022/02/13 04:15:59;;;;;;;5.68;3.13;;;;;;;4.99;54.79;98467.81;5043083;28;20049;-59
2022/02/13 04:18:26;;;;;;;4.72;2.60;;;;;;;5.40;55.19;98519.03;5041530;28;20462;-59
2022/02/13 04:20:53;;;;;;;8.38;3.05;;;;;;;5.42;55.59;98527.75;5041911;28;20049;-58
2022/02/13 04:23:19;;;;;;;13.02;5.22;;;;;;;5.43;55.88;98523.91;5041623;28;20049;-57
2022/02/13 04:25:46;;;;;;;23.85;9.65;;;;;;;5.45;56.04;98526.38;5043502;28;20509;-58
2022/02/13 04:28:13;;;;;;;21.42;7.07;;;;;;;5.21;56.12;98465.25;5043143;28;20053;-59
2022/02/13 04:30:39;;;;;;;10.32;4.97;;;;;;;5.56;55.03;98528.66;5041572;28;20055;-59
2022/02/13 04:33:07;;;;;;;6.43;2.90;;;;;;;5.44;54.90;98510.97;5043302;28;20061;-56
2022/02/13 04:35:35;;;;;;;8.48;2.55;;;;;;;5.43;54.65;98517.59;5043928;28;20422;-58
2022/02/13 04:38:03;;;;;;;7.78;3.05;;;;;;;5.47;54.60;98535.13;5046435;28;20079;-59
2022/02/13 04:40:29;;;;;;;15.45;6.20;;;;;;;5.44;55.13;98535.72;5047007;28;20049;-58
2022/02/13 04:42:56;;;;;;;18.48;6.45;;;;;;;5.48;55.88;98531.25;5045556;28;20067;-59
2022/02/13 04:45:24;;;;;;;22.02;8.43;;;;;;;5.33;56.35;98512.28;5046838;28;20072;-58
2022/02/13 04:47:51;;;;;;;22.85;9.52;;;;;;;5.18;56.36;98505.13;5046496;28;20057;-58
2022/02/13 04:50:21;;;;;;;19.77;8.65;;;;;;;4.99;56.80;98489.78;5046693;28;20139;-59
2022/02/13 04:52:50;;;;;;;18.77;8.18;;;;;;;5.39;57.32;98533.06;5046744;28;20186;-58
2022/02/13 04:55:17;;;;;;;18.63;7.53;;;;;;;5.18;58.20;98537.25;5046568;28;20064;-58
2022/02/13 04:57:45;;;;;;;10.60;4.65;;;;;;;5.22;58.60;98546.50;5046958;28;20458;-57
2022/02/13 05:00:14;;;;;;;12.00;5.78;;;;;;;4.96;58.62;98504.94;5047276;28;20052;-58
2022/02/13 05:02:41;;;;;;;13.35;5.78;;;;;;;5.23;59.23;98539.94;5046900;28;20053;-58
2022/02/13 05:05:08;;;;;;;35.53;9.82;;;;;;;4.95;58.04;98484.06;5046397;28;20049;-58
2022/02/13 05:07:35;;;;;;;103.95;34.55;;;;;;;5.35;57.03;98538.34;5046980;28;20430;-60
2022/02/13 05:10:03;;;;;;;80.15;28.25;;;;;;;5.39;57.52;98535.81;5046775;28;20052;-56
2022/02/13 05:12:31;;;;;;;35.00;13.98;;;;;;;4.72;56.96;98445.72;5046882;28;20056;-57
2022/02/13 05:14:58;;;;;;;19.23;8.10;;;;;;;5.04;56.98;98520.72;5046318;28;20052;-56
2022/02/13 05:17:25;;;;;;;18.95;7.10;;;;;;;5.19;56.83;98533.38;5046855;28;20052;-56
2022/02/13 05:19:51;;;;;;;19.77;8.18;;;;;;;5.23;56.07;98539.94;5045578;28;20076;-56
2022/02/13 05:22:18;;;;;;;27.20;8.98;;;;;;;5.22;56.66;98538.28;5043914;28;20467;-57
2022/02/13 05:24:45;;;;;;;24.63;9.80;;;;;;;5.32;56.29;98535.38;5045968;28;20045;-59
2022/02/13 05:27:13;;;;;;;37.20;13.88;;;;;;;5.32;56.73;98540.88;5046300;28;20103;-57
2022/02/13 05:29:40;;;;;;;27.30;9.50;;;;;;;5.32;56.61;98544.44;5046043;28;20053;-59
2022/02/13 05:32:07;;;;;;;26.75;10.20;;;;;;;4.93;56.97;98463.53;5046500;28;20052;-56
2022/02/13 05:34:34;;;;;;;22.10;8.15;;;;;;;5.42;56.61;98620.41;5044980;28;20438;-55
2022/02/13 05:37:02;;;;;;;13.30;6.18;;;;;;;4.86;56.55;98463.91;5045382;28;20075;-58
2022/02/13 05:39:28;;;;;;;47.40;19.10;;;;;;;5.07;57.02;98520.13;5046229;28;20057;-56
2022/02/13 05:41:55;;;;;;;35.72;14.43;;;;;;;5.33;57.42;98545.25;5046055;28;20060;-60
2022/02/13 05:44:21;;;;;;;31.13;14.35;;;;;;;5.14;57.46;98536.22;5045456;28;20057;-58
2022/02/13 05:46:49;;;;;;;24.48;10.68;;;;;;;5.02;57.24;98494.66;5045915;28;20573;-59
2022/02/13 05:49:16;;;;;;;22.88;10.38;;;;;;;4.86;58.37;98479.53;5044975;28;20053;-59
2022/02/13 05:51:43;;;;;;;19.63;7.68;;;;;;;4.94;57.68;98498.09;5046210;28;20057;-59
2022/02/13 05:54:10;;;;;;;13.35;5.78;;;;;;;5.34;57.76;98549.63;5046297;28;20060;-57
2022/02/13 05:56:37;;;;;;;9.90;3.63;;;;;;;5.39;57.42;98550.34;5045930;28;20582;-58
2022/02/13 05:59:03;;;;;;;16.45;5.50;;;;;;;4.76;56.99;98461.31;5045677;28;20056;-58
2022/02/13 06:01:30;;;;;;;19.17;8.40;;;;;;;5.36;57.55;98550.16;5043994;28;20385;-58
2022/02/13 06:03:57;;;;;;;22.08;9.27;;;;;;;5.36;57.21;98528.19;5044979;28;20065;-56
2022/02/13 06:06:23;;;;;;;16.27;6.30;;;;;;;5.32;57.22;98532.63;5045546;28;20060;-59
2022/02/13 06:08:50;;;;;;;14.13;6.32;;;;;;;5.34;56.69;98535.91;5043919;28;20048;-56
2022/02/13 06:11:17;;;;;;;15.65;5.35;;;;;;;5.24;56.06;98503.09;5045297;28;20564;-59
2022/02/13 06:13:43;;;;;;;12.80;4.75;;;;;;;5.53;56.26;98547.66;5045627;28;20487;-56
2022/02/13 06:16:10;;;;;;;18.38;6.82;;;;;;;5.53;56.03;98551.22;5045211;28;20064;-59
2022/02/13 06:18:37;;;;;;;12.65;5.10;;;;;;;5.58;55.96;98553.06;5043354;28;20571;-60
2022/02/13 06:21:04;;;;;;;18.58;6.60;;;;;;;5.56;55.41;98550.63;5044993;28;20547;-58
2022/02/13 06:23:31;;;;;;;15.23;7.53;;;;;;;5.55;55.81;98548.16;5044839;28;20519;-56
2022/02/13 06:25:59;;;;;;;17.80;6.50;;;;;;;5.37;56.07;98508.66;5045131;28;20053;-56
2022/02/13 06:28:26;;;;;;;13.05;4.97;;;;;;;5.62;55.77;98548.59;5045133;28;20049;-59
2022/02/13 06:30:54;;;;;;;11.10;5.95;;;;;;;5.37;55.63;98507.81;5044959;28;20049;-58
2022/02/13 06:33:20;;;;;;;16.70;5.85;;;;;;;5.75;55.90;98542.31;5045033;28;20511;-59
2022/02/13 06:35:47;;;;;;;16.10;6.68;;;;;;;5.69;56.03;98549.03;5043685;28;20475;-56
2022/02/13 06:38:15;;;;;;;11.80;6.10;;;;;;;3.16;57.16;98163.03;5044745;28;20082;-56
2022/02/13 06:40:42;;;;;;;11.85;4.65;;;;;;;5.13;61.12;98534.59;5043383;28;20089;-59
2022/02/13 06:43:09;;;;;;;9.05;4.85;;;;;;;4.78;61.07;98439.88;5043343;28;20064;-56
2022/02/13 06:45:37;;;;;;;11.82;4.43;;;;;;;5.50;60.93;98562.00;5044844;28;20056;-59
2022/02/13 06:48:04;;;;;;;14.00;4.75;;;;;;;5.36;61.11;98533.69;5045393;28;20048;-56
2022/02/13 06:50:31;;;;;;;11.95;4.40;;;;;;;5.58;61.22;98548.38;5044583;28;20057;-57
2022/02/13 06:53:00;;;;;;;14.60;4.35;;;;;;;5.71;60.79;98552.28;5045270;28;20104;-59
2022/02/13 06:55:27;;;;;;;13.98;6.10;;;;;;;5.44;60.30;98505.47;5044659;28;20072;-58
2022/02/13 06:57:54;;;;;;;12.25;6.30;;;;;;;5.51;58.93;98508.66;5044910;28;20059;-56
2022/02/13 07:00:21;;;;;;;13.88;4.15;;;;;;;6.00;57.52;98542.72;5043947;28;20075;-57
2022/02/13 07:02:48;;;;;;;13.38;5.32;;;;;;;5.70;57.86;98491.00;5043734;28;20063;-59
2022/02/13 07:05:15;;;;;;;13.65;4.50;;;;;;;5.73;58.56;98511.56;5044173;28;20055;-58
2022/02/13 07:07:42;;;;;;;18.98;4.30;;;;;;;5.59;58.91;98469.50;5044619;28;20067;-55
2022/02/13 07:10:12;;;;;;;15.23;5.25;;;;;;;5.95;58.87;98541.97;5044163;28;20527;-58
2022/02/13 07:12:40;;;;;;;11.73;4.80;;;;;;;5.95;58.14;98539.22;5044422;28;20070;-58
2022/02/13 07:15:07;;;;;;;11.38;4.53;;;;;;;5.95;57.19;98536.47;5044376;28;20049;-55
2022/02/13 07:17:35;;;;;;;11.43;4.40;;;;;;;5.80;57.08;98495.50;5042953;28;20448;-55
2022/02/13 07:20:03;;;;;;;9.80;4.20;;;;;;;5.93;57.42;98533.19;5042731;28;20051;-58
2022/02/13 07:22:29;;;;;;;12.63;4.38;;;;;;;5.70;57.87;98536.91;5042483;28;20434;-56
2022/02/13 07:24:56;;;;;;;17.13;5.80;;;;;;;5.82;58.16;98529.00;5042775;28;20049;-57
2022/02/13 07:27:23;;;;;;;13.70;5.38;;;;;;;6.01;58.04;98529.75;5042477;28;20045;-56
2022/02/13 07:29:49;;;;;;;14.20;5.85;;;;;;;6.04;57.59;98529.13;5042419;28;20358;-57
2022/02/13 07:32:16;;;;;;;42.97;17.08;;;;;;;6.15;57.39;98536.06;5044026;28;20057;-55
2022/02/13 07:34:43;;;;;;;42.70;16.50;;;;;;;6.33;57.06;98528.84;5044184;28;20367;-58
2022/02/13 07:37:13;;;;;;;41.80;15.48;;;;;;;6.02;57.21;98454.38;5044799;28;20427;-58
2022/02/13 07:39:40;;;;;;;19.48;6.95;;;;;;;6.59;57.02;98522.47;5044115;28;20605;-56
2022/02/13 07:42:07;;;;;;;11.48;5.07;;;;;;;6.64;55.83;98527.88;5028343;28;20049;-59
2022/02/13 07:44:34;;;;;;;15.23;4.50;;;;;;;6.74;55.48;98522.16;5043634;28;20166;-58
2022/02/13 07:47:01;;;;;;;9.68;3.60;;;;;;;6.78;55.80;98512.13;5043585;28;20491;-58
2022/02/13 07:49:27;;;;;;;9.40;3.13;;;;;;;6.72;55.11;98485.06;5043804;28;20048;-58
2022/02/13 07:51:54;;;;;;;6.55;3.10;;;;;;;7.07;54.99;98520.84;5043807;28;20412;-56
2022/02/13 07:54:21;;;;;;;12.85;3.30;;;;;;;6.53;55.60;98416.34;5043460;28;20080;-58
2022/02/13 07:56:48;;;;;;;17.40;5.13;;;;;;;7.09;55.80;98501.25;5043418;28;20053;-59
2022/02/13 07:59:15;;;;;;;11.27;4.47;;;;;;;7.19;55.66;98512.03;5043668;28;20055;-58
2022/02/13 08:01:42;;;;;;;11.88;4.50;;;;;;;7.22;55.29;98514.94;5043741;28;20048;-58
2022/02/13 08:04:09;;;;;;;7.55;3.00;;;;;;;7.32;55.71;98511.94;5043694;28;20068;-56
2022/02/13 08:06:36;;;;;;;12.18;3.70;;;;;;;7.35;54.91;98508.56;5043357;28;20053;-58
2022/02/13 08:09:02;;;;;;;7.78;3.60;;;;;;;7.15;55.58;98467.75;5043182;28;20121;-59
2022/02/13 08:11:29;;;;;;;14.98;9.60;;;;;;;7.52;54.96;98500.41;5042590;28;20045;-59
2022/02/13 08:13:57;;;;;;;9.18;3.38;;;;;;;7.52;53.96;98475.59;5041717;28;20159;-55
2022/02/13 08:16:24;;;;;;;10.20;3.35;;;;;;;7.43;53.67;98479.41;5043458;28;20048;-56
2022/02/13 08:18:50;;;;;;;5.82;3.15;;;;;;;7.38;53.57;98507.13;5041925;28;20072;-56
2022/02/13 08:21:17;;;;;;;10.85;2.60;;;;;;;6.96;55.04;98494.66;5043868;28;20060;-58
2022/02/13 08:23:44;;;;;;;6.95;1.98;;;;;;;6.78;54.54;98503.09;5043664;28;20053;-59
2022/02/13 08:26:11;;;;;;;7.25;2.13;;;;;;;7.03;54.27;98497.81;5043882;28;20238;-59
2022/02/13 08:28:38;;;;;;;9.77;2.17;;;;;;;7.24;54.42;98487.91;5043178;28;20056;-59
2022/02/13 08:31:05;;;;;;;25.08;18.90;;;;;;;6.61;56.13;98473.44;5043183;28;20045;-60
2022/02/13 08:33:32;;;;;;;7.30;2.80;;;;;;;6.93;55.65;98495.28;5043287;28;20086;-56
2022/02/13 08:35:59;;;;;;;8.13;2.90;;;;;;;6.77;55.34;98488.50;5042964;28;20463;-59
2022/02/13 08:38:26;;;;;;;7.28;2.45;;;;;;;7.02;54.26;98484.31;5042754;28;20057;-59
2022/02/13 08:40:53;;;;;;;8.82;2.72;;;;;;;6.97;54.23;98499.03;5042937;28;20045;-59
2022/02/13 08:43:20;;;;;;;8.98;3.42;;;;;;;7.11;54.28;98491.53;5042968;28;20084;-60
2022/02/13 08:45:47;;;;;;;6.20;2.20;;;;;;;7.14;54.64;98466.13;5043159;28;20049;-56
2022/02/13 08:48:15;;;;;;;6.10;2.30;;;;;;;7.18;53.17;98433.22;5042661;28;20053;-56
2022/02/13 08:50:42;;;;;;;7.85;2.60;;;;;;;7.47;53.96;98539.16;5042695;28;20064;-58
2022/02/13 08:53:08;;;;;;;10.30;3.75;;;;;;;7.54;53.69;98476.09;5043571;28;20053;-58
2022/02/13 08:55:37;;;;;;;7.95;2.63;;;;;;;7.62;52.68;98456.03;5042899;28;20059;-59
2022/02/13 08:58:06;;;;;;;8.85;2.30;;;;;;;8.08;52.68;98476.84;5043024;28;20451;-55
2022/02/13 09:00:33;;;;;;;7.88;2.72;;;;;;;8.30;51.62;98480.34;5042921;28;20053;-59
2022/02/13 09:03:00;;;;;;;8.57;3.22;;;;;;;8.34;51.18;98477.75;5041409;28;20597;-57
2022/02/13 09:05:27;;;;;;;38.85;35.28;;;;;;;8.63;51.97;98476.03;5043034;28;20419;-60
2022/02/13 09:07:54;;;;;;;11.32;6.97;;;;;;;8.28;51.87;98485.41;5041823;28;20814;-59
2022/02/13 09:10:21;;;;;;;7.13;3.72;;;;;;;8.20;51.82;98405.28;5042962;28;20479;-56
2022/02/13 09:12:47;;;;;;;5.70;2.97;;;;;;;8.51;51.24;98428.09;5043084;28;20056;-57
2022/02/13 09:15:16;;;;;;;5.63;2.33;;;;;;;8.36;51.25;98461.69;5042643;28;20051;-58
2022/02/13 09:17:43;;;;;;;5.35;2.30;;;;;;;8.00;51.41;98411.41;5043267;28;20396;-56
2022/02/13 09:20:10;;;;;;;9.43;2.72;;;;;;;7.86;51.38;98388.63;5041377;28;20055;-57
2022/02/13 09:22:37;;;;;;;6.97;2.40;;;;;;;8.57;51.09;98454.41;5041031;28;20067;-57
2022/02/13 09:25:04;;;;;;;7.10;2.63;;;;;;;7.93;51.68;98431.19;5045655;28;20056;-59
2022/02/13 09:27:31;;;;;;;6.60;2.90;;;;;;;8.27;51.79;98417.50;5046665;28;20496;-58
2022/02/13 09:29:58;;;;;;;9.27;2.88;;;;;;;8.81;50.58;98450.06;5046495;28;20529;-56
2022/02/13 09:32:25;;;;;;;11.13;3.58;;;;;;;8.90;50.16;98447.28;5046267;28;20114;-59
2022/02/13 09:34:51;;;;;;;18.13;6.00;;;;;;;9.03;49.57;98438.00;5046066;28;20049;-60
2022/02/13 09:37:18;;;;;;;6.35;3.05;;;;;;;8.48;50.54;98390.06;5046344;28;20055;-59
2022/02/13 09:39:47;;;;;;;7.35;3.15;;;;;;;8.75;50.45;98429.25;5046066;28;20155;-59
2022/02/13 09:42:14;;;;;;;8.13;3.28;;;;;;;8.30;50.61;98358.09;5045464;28;20094;-58
2022/02/13 09:44:41;;;;;;;4.15;2.33;;;;;;;8.85;49.52;98428.13;5045417;28;20063;-60
2022/02/13 09:47:09;;;;;;;7.80;2.58;;;;;;;8.58;49.57;98359.38;5046539;28;20049;-58
2022/02/13 09:49:36;;;;;;;5.80;2.95;;;;;;;8.98;49.26;98416.88;5044463;28;20164;-56
2022/02/13 09:52:04;;;;;;;9.25;2.70;;;;;;;8.84;49.57;98409.91;5044270;28;20053;-59
2022/02/13 09:54:30;;;;;;;7.85;3.25;;;;;;;8.62;49.98;98412.81;5045023;28;20132;-59
2022/02/13 09:59:58;;;;;;;8.02;3.42;;;;;;;7.41;53.49;98410.81;5024220;28;20048;-56
2022/02/13 10:02:49;;;;;;;5.65;3.00;;;;;;;7.29;53.08;98407.84;5045670;28;20049;-56
2022/02/13 10:05:20;;;;;;;8.82;2.85;;;;;;;7.82;51.74;98393.16;5045238;28;20048;-55
2022/02/13 10:07:52;;;;;;;8.48;3.40;;;;;;;8.14;51.25;98378.97;5044472;28;20136;-56
2022/02/13 10:10:19;;;;;;;10.88;3.88;;;;;;;8.78;49.97;98384.41;5044577;28;20037;-58
2022/02/13 10:12:48;;;;;;;17.88;6.00;;;;;;;9.15;49.05;98382.91;5045579;28;20060;-57
2022/02/13 10:15:21;;;;;;;30.92;11.77;;;;;;;9.50;48.60;98372.56;5045445;28;20492;-58
2022/02/13 10:18:07;;;;;;;12.10;5.13;;;;;;;9.68;47.63;98363.84;5044608;28;20057;-59
2022/02/13 10:20:34;;;;;;;19.10;7.05;;;;;;;9.64;47.68;98357.34;5044845;28;20778;-56
2022/02/13 10:23:05;;;;;;;18.08;6.07;;;;;;;9.93;46.81;98349.06;5045115;28;20052;-59
2022/02/13 10:25:31;;;;;;;6.18;3.15;;;;;;;9.07;47.55;98358.84;5045136;28;20053;-58
2022/02/13 10:27:58;;;;;;;5.00;2.35;;;;;;;9.31;46.84;98352.75;5045379;28;20049;-56
2022/02/13 10:30:55;;;;;;;7.07;2.92;;;;;;;9.15;47.40;98344.19;5045481;28;20056;-57
2022/02/13 10:33:27;;;;;;;8.07;3.60;;;;;;;9.20;47.65;98341.22;5040329;28;20044;-59
2022/02/13 10:36:03;;;;;;;6.70;2.95;;;;;;;9.09;47.06;98313.13;5044653;28;20053;-55
2022/02/13 10:38:40;;;;;;;6.88;3.00;;;;;;;9.52;46.54;98332.34;5044906;28;20064;-56
2022/02/13 10:41:16;;;;;;;5.88;2.28;;;;;;;9.54;45.68;98321.75;5044905;28;20049;-57
2022/02/13 10:43:58;;;;;;;7.25;3.08;;;;;;;9.18;46.00;98321.41;5043566;28;20057;-58
2022/02/13 10:46:30;;;;;;;6.43;3.13;;;;;;;8.49;46.34;98192.88;5044838;28;20052;-58
2022/02/13 10:48:59;;;;;;;11.80;3.67;;;;;;;9.55;46.05;98308.75;5045162;28;20724;-56
2022/02/13 10:51:27;;;;;;;9.20;3.22;;;;;;;9.28;46.12;98304.44;5045060;28;20060;-56
2022/02/13 10:53:55;;;;;;;8.48;3.40;;;;;;;8.89;47.38;98297.28;5043530;28;20053;-58
2022/02/13 10:56:22;;;;;;;9.98;3.33;;;;;;;8.90;47.48;98287.00;5044533;28;20057;-57
2022/02/13 10:58:55;;;;;;;7.53;3.25;;;;;;;9.04;47.20;98291.19;5044818;28;20474;-56
2022/02/13 11:01:24;;;;;;;4.97;2.97;;;;;;;8.52;47.79;98284.16;5044512;28;20056;-56
2022/02/13 11:03:54;;;;;;;5.93;3.20;;;;;;;9.05;46.33;98278.19;5044605;28;20057;-57
2022/02/13 11:06:23;;;;;;;23.52;7.47;;;;;;;9.05;46.09;98256.09;5044900;28;20056;-56
2022/02/13 11:09:00;;;;;;;4.28;2.67;;;;;;;9.19;45.28;98274.09;5043727;28;20057;-57
2022/02/13 11:11:43;;;;;;;6.55;2.97;;;;;;;9.18;45.73;98277.19;5044594;28;20055;-57
2022/02/13 11:14:36;;;;;;;9.73;3.83;;;;;;;9.37;45.03;98261.00;5042746;28;20056;-57
2022/02/13 11:17:04;;;;;;;122.93;53.83;;;;;;;9.56;44.83;98269.69;5044490;28;20088;-57
2022/02/13 11:19:33;;;;;;;12.65;4.30;;;;;;;9.80;42.97;98253.25;5043777;28;20051;-56
2022/02/13 11:22:02;;;;;;;8.73;3.95;;;;;;;9.79;44.19;98232.28;5044567;28;20053;-59
2022/02/13 11:24:34;;;;;;;7.43;3.45;;;;;;;9.79;44.03;98246.09;5043963;28;20049;-58
2022/02/13 11:27:02;;;;;;;9.05;3.30;;;;;;;9.50;43.24;98185.25;5044257;28;20061;-58
2022/02/13 11:29:50;;;;;;;10.48;4.32;;;;;;;9.91;43.10;98239.84;5043636;28;20499;-57
2022/02/13 11:32:36;;;;;;;8.18;3.50;;;;;;;9.77;43.40;98240.09;5044019;28;20176;-58
2022/02/13 11:35:05;;;;;;;6.90;3.17;;;;;;;9.75;43.31;98220.25;5043930;28;20060;-58
2022/02/13 11:37:47;;;;;;;7.28;2.50;;;;;;;9.84;43.57;98237.59;5043515;28;20059;-57
2022/02/13 11:40:43;;;;;;;7.05;2.63;;;;;;;9.20;43.70;98230.66;5043235;28;20584;-58
2022/02/13 11:43:14;;;;;;;10.27;4.47;;;;;;;8.82;44.21;98196.69;5047206;28;20053;-58